createdAt,value
2023-04-29T00:00:42.559Z,4.60
2023-04-29T00:03:09.985Z,5.47
2023-04-29T00:05:37.272Z,5.97
2023-04-29T00:08:05.009Z,6.07
2023-04-29T00:10:32.037Z,6.23
2023-04-29T00:12:58.939Z,7.30
2023-04-29T00:15:25.800Z,7.73
2023-04-29T00:17:52.601Z,6.93
2023-04-29T00:20:19.452Z,6.73
2023-04-29T00:22:46.203Z,6.30
2023-04-29T00:25:13.187Z,5.63
2023-04-29T00:27:39.979Z,7.87
2023-04-29T00:30:08.571Z,5.80
2023-04-29T00:32:35.480Z,5.40
2023-04-29T00:35:02.420Z,6.07
2023-04-29T00:37:29.155Z,5.50
2023-04-29T00:39:55.902Z,4.73
2023-04-29T00:42:22.710Z,5.50
2023-04-29T00:44:49.404Z,4.33
2023-04-29T00:47:16.284Z,7.00
2023-04-29T00:49:43.928Z,6.20
2023-04-29T00:52:14.258Z,6.60
2023-04-29T00:54:42.001Z,5.40
2023-04-29T00:57:09.700Z,5.13
2023-04-29T00:59:37.835Z,5.17
2023-04-29T01:02:05.707Z,6.10
2023-04-29T01:04:33.054Z,4.40
2023-04-29T01:07:22.306Z,4.77
2023-04-29T01:10:14.798Z,4.13
2023-04-29T01:13:03.849Z,3.70
2023-04-29T01:15:38.351Z,3.13
2023-04-29T01:18:15.835Z,3.43
2023-04-29T01:20:44.789Z,3.03
2023-04-29T01:23:12.320Z,3.27
2023-04-29T01:25:40.782Z,2.83
2023-04-29T01:28:49.538Z,2.37
2023-04-29T01:31:25.057Z,2.70
2023-04-29T01:34:13.633Z,2.83
2023-04-29T01:36:49.219Z,2.90
2023-04-29T01:39:45.610Z,3.00
2023-04-29T01:42:25.281Z,3.90
2023-04-29T01:44:56.801Z,3.47
2023-04-29T01:47:25.413Z,3.20
2023-04-29T01:49:54.403Z,3.50
2023-04-29T01:52:23.177Z,2.90
2023-04-29T01:54:56.496Z,3.00
2023-04-29T01:57:24.530Z,2.90
2023-04-29T01:59:57.361Z,3.50
2023-04-29T02:02:47.683Z,3.60
2023-04-29T02:05:36.142Z,2.80
2023-04-29T02:08:03.362Z,3.10
2023-04-29T02:10:31.777Z,3.00
2023-04-29T02:13:12.195Z,3.00
2023-04-29T02:15:39.495Z,2.90
2023-04-29T02:18:06.289Z,2.90
2023-04-29T02:20:33.139Z,2.77
2023-04-29T02:22:59.875Z,3.00
2023-04-29T02:25:26.724Z,2.30
2023-04-29T02:27:53.538Z,3.20
2023-04-29T02:30:20.365Z,2.60
2023-04-29T02:32:47.156Z,3.07
2023-04-29T02:35:15.067Z,3.50
2023-04-29T02:37:41.769Z,2.90
2023-04-29T02:40:09.239Z,2.63
2023-04-29T02:42:35.980Z,2.73
2023-04-29T02:45:02.776Z,2.50
2023-04-29T02:47:29.988Z,2.63
2023-04-29T02:49:56.785Z,2.20
2023-04-29T02:52:23.888Z,3.03
2023-04-29T02:54:50.843Z,2.60
2023-04-29T02:57:18.430Z,2.70
2023-04-29T02:59:45.520Z,2.30
2023-04-29T03:02:13.049Z,2.70
2023-04-29T03:04:41.204Z,2.60
2023-04-29T03:07:08.094Z,2.60
2023-04-29T03:09:35.728Z,3.10
2023-04-29T03:12:02.991Z,3.60
2023-04-29T03:14:30.476Z,3.53
2023-04-29T03:16:58.723Z,2.70
2023-04-29T03:19:25.603Z,3.27
2023-04-29T03:21:53.920Z,2.80
2023-04-29T03:24:21.511Z,3.50
2023-04-29T03:26:48.250Z,3.33
2023-04-29T03:29:15.318Z,3.43
2023-04-29T03:31:42.467Z,3.77
2023-04-29T03:34:09.246Z,2.90
2023-04-29T03:36:39.333Z,2.77
2023-04-29T03:39:07.652Z,2.70
2023-04-29T03:41:34.585Z,2.87
2023-04-29T03:44:01.421Z,3.00
2023-04-29T03:46:29.784Z,2.57
2023-04-29T03:48:58.293Z,3.17
2023-04-29T03:51:25.541Z,3.30
2023-04-29T03:53:58.160Z,3.33
2023-04-29T03:56:25.845Z,2.83
2023-04-29T03:58:53.637Z,3.20
2023-04-29T04:01:22.687Z,3.80
2023-04-29T04:03:50.112Z,3.80
2023-04-29T04:06:17.024Z,3.40
2023-04-29T04:08:44.476Z,3.60
2023-04-29T04:11:15.401Z,2.87
2023-04-29T04:13:45.705Z,3.57
2023-04-29T04:16:12.996Z,2.97
2023-04-29T04:18:40.332Z,2.73
2023-04-29T04:21:12.458Z,2.83
2023-04-29T04:23:42.629Z,3.10
2023-04-29T04:26:11.865Z,3.30
2023-04-29T04:28:57.568Z,3.70
2023-04-29T04:31:39.672Z,3.00
2023-04-29T04:34:08.108Z,3.70
2023-04-29T04:36:35.509Z,3.80
2023-04-29T04:39:02.238Z,2.53
2023-04-29T04:41:31.615Z,3.03
2023-04-29T04:43:58.658Z,3.33
2023-04-29T04:46:48.864Z,3.00
2023-04-29T04:49:26.183Z,2.70
2023-04-29T04:51:54.065Z,3.17
2023-04-29T04:54:20.750Z,2.57
2023-04-29T04:56:52.274Z,2.93
2023-04-29T04:59:20.967Z,2.70
2023-04-29T05:01:47.834Z,2.00
2023-04-29T05:04:15.615Z,2.70
2023-04-29T05:06:42.407Z,2.77
2023-04-29T05:09:09.244Z,2.57
2023-04-29T05:11:36.179Z,2.20
2023-04-29T05:14:12.423Z,3.33
2023-04-29T05:16:39.768Z,2.40
2023-04-29T05:19:06.611Z,2.40
2023-04-29T05:21:37.096Z,2.60
2023-04-29T05:24:04.139Z,2.40
2023-04-29T05:26:31.080Z,3.17
2023-04-29T05:29:01.195Z,2.73
2023-04-29T05:31:32.441Z,3.50
2023-04-29T05:34:02.388Z,3.80
2023-04-29T05:36:30.024Z,5.37
2023-04-29T05:38:57.801Z,4.87
2023-04-29T05:41:25.130Z,5.23
2023-04-29T05:44:12.116Z,4.60
2023-04-29T05:46:39.493Z,4.30
2023-04-29T05:49:06.578Z,4.80
2023-04-29T05:51:33.301Z,4.37
2023-04-29T05:54:00.453Z,5.87
2023-04-29T05:56:28.713Z,5.17
2023-04-29T05:58:56.262Z,7.17
2023-04-29T06:01:23.441Z,6.70
2023-04-29T06:03:50.396Z,5.20
2023-04-29T06:06:30.015Z,4.27
2023-04-29T06:09:27.084Z,4.33
2023-04-29T06:11:57.977Z,5.80
2023-04-29T06:14:24.888Z,6.10
2023-04-29T06:16:53.699Z,6.33
2023-04-29T06:19:20.627Z,6.90
2023-04-29T06:21:48.262Z,8.13
2023-04-29T06:24:15.009Z,7.30
2023-04-29T06:26:41.707Z,7.30
2023-04-29T06:29:08.556Z,8.90
2023-04-29T06:31:36.563Z,8.47
2023-04-29T06:34:04.557Z,9.67
2023-04-29T06:36:33.048Z,7.30
2023-04-29T06:39:18.207Z,9.07
2023-04-29T06:42:08.248Z,10.23
2023-04-29T06:45:07.535Z,8.13
2023-04-29T06:47:46.650Z,8.07
2023-04-29T06:50:18.168Z,9.13
2023-04-29T06:52:45.090Z,8.77
2023-04-29T06:55:12.518Z,9.37
2023-04-29T06:57:42.498Z,8.37
2023-04-29T07:00:09.808Z,10.57
2023-04-29T07:02:39.478Z,10.53
2023-04-29T07:05:07.011Z,9.40
2023-04-29T07:07:34.391Z,8.47
2023-04-29T07:10:01.135Z,10.40
2023-04-29T07:12:27.864Z,9.40
2023-04-29T07:14:54.723Z,8.10
2023-04-29T07:17:22.115Z,8.07
2023-04-29T07:19:48.932Z,8.47
2023-04-29T07:22:15.619Z,8.97
2023-04-29T07:24:42.313Z,9.13
2023-04-29T07:27:09.052Z,7.50
2023-04-29T07:29:36.428Z,6.97
2023-04-29T07:32:04.201Z,7.33
2023-04-29T07:34:30.993Z,8.03
2023-04-29T07:36:57.722Z,6.60
2023-04-29T07:39:24.523Z,6.60
2023-04-29T07:41:55.413Z,7.07
2023-04-29T07:44:22.509Z,5.53
2023-04-29T07:46:49.370Z,7.47
2023-04-29T07:49:16.241Z,5.60
2023-04-29T07:51:43.958Z,6.70
2023-04-29T07:54:10.915Z,5.67
2023-04-29T07:56:37.723Z,6.60
2023-04-29T07:59:04.444Z,6.50
2023-04-29T08:01:31.501Z,6.23
2023-04-29T08:03:59.310Z,5.60
2023-04-29T08:06:27.446Z,4.87
2023-04-29T08:08:56.214Z,5.10
2023-04-29T08:11:24.489Z,4.80
2023-04-29T08:13:51.319Z,5.00
2023-04-29T08:16:18.563Z,5.90
2023-04-29T08:18:45.434Z,6.60
2023-04-29T08:21:12.287Z,4.73
2023-04-29T08:23:40.110Z,4.10
2023-04-29T08:26:06.859Z,4.87
2023-04-29T08:28:33.797Z,5.40
2023-04-29T08:31:00.691Z,5.70
2023-04-29T08:33:27.696Z,5.00
2023-04-29T08:36:03.549Z,5.27
2023-04-29T08:38:31.093Z,5.53
2023-04-29T08:40:58.524Z,5.20
2023-04-29T08:43:26.695Z,5.10
2023-04-29T08:45:53.923Z,5.47
2023-04-29T08:48:22.235Z,5.10
2023-04-29T08:50:49.937Z,5.57
2023-04-29T08:53:16.682Z,4.80
2023-04-29T08:55:47.826Z,3.77
2023-04-29T08:58:16.215Z,4.07
2023-04-29T09:00:44.180Z,3.63
2023-04-29T09:03:22.181Z,4.10
2023-04-29T09:05:52.910Z,3.00
2023-04-29T09:08:22.637Z,3.00
2023-04-29T09:10:50.763Z,4.07
2023-04-29T09:13:29.259Z,4.70
2023-04-29T09:15:56.351Z,3.63
2023-04-29T09:18:45.524Z,4.20
2023-04-29T09:21:21.985Z,3.30
2023-04-29T09:23:54.743Z,3.23
2023-04-29T09:26:22.621Z,3.47
2023-04-29T09:29:08.139Z,3.33
2023-04-29T09:31:35.394Z,3.03
2023-04-29T09:34:02.153Z,3.60
2023-04-29T09:36:46.907Z,3.73
2023-04-29T09:39:18.561Z,3.70
2023-04-29T09:41:54.588Z,2.70
2023-04-29T09:44:23.426Z,3.10
2023-04-29T09:46:57.954Z,2.67
2023-04-29T09:49:26.909Z,3.90
2023-04-29T09:51:59.504Z,3.27
2023-04-29T09:54:28.621Z,2.60
2023-04-29T09:56:56.862Z,3.40
2023-04-29T09:59:24.334Z,4.40
2023-04-29T10:01:53.477Z,3.23
2023-04-29T10:04:21.911Z,4.00
2023-04-29T10:06:51.086Z,2.83
2023-04-29T10:09:19.271Z,2.43
2023-04-29T10:11:48.312Z,2.67
2023-04-29T10:14:20.180Z,2.40
2023-04-29T10:16:54.500Z,3.40
2023-04-29T10:19:27.868Z,2.53
2023-04-29T10:21:58.260Z,2.43
2023-04-29T10:24:26.840Z,2.60
2023-04-29T10:26:56.166Z,2.33
2023-04-29T10:29:25.564Z,3.33
2023-04-29T10:31:53.557Z,3.30
2023-04-29T10:34:21.144Z,3.13
2023-04-29T10:36:49.448Z,3.63
2023-04-29T10:39:27.621Z,2.23
2023-04-29T10:41:56.011Z,2.57
2023-04-29T10:44:24.085Z,2.83
2023-04-29T10:47:20.352Z,2.40
2023-04-29T10:50:04.520Z,1.97
2023-04-29T10:52:31.466Z,3.33
2023-04-29T10:55:04.357Z,1.90
2023-04-29T10:57:31.396Z,1.97
2023-04-29T10:59:58.145Z,2.37
2023-04-29T11:02:26.464Z,2.00
2023-04-29T11:05:10.581Z,1.87
2023-04-29T11:07:37.446Z,2.17
2023-04-29T11:10:04.474Z,3.50
2023-04-29T11:12:31.324Z,2.33
2023-04-29T11:15:03.370Z,1.97
2023-04-29T11:17:36.436Z,2.03
2023-04-29T11:20:03.894Z,2.00
2023-04-29T11:22:32.060Z,2.20
2023-04-29T11:25:02.886Z,5.00
2023-04-29T11:27:34.731Z,3.50
2023-04-29T11:30:05.078Z,1.97
2023-04-29T11:32:37.136Z,2.50
2023-04-29T11:35:15.321Z,2.30
2023-04-29T11:37:43.654Z,2.20
2023-04-29T11:40:11.728Z,2.40
2023-04-29T11:42:44.595Z,2.43
2023-04-29T11:45:12.591Z,2.17
2023-04-29T11:47:46.477Z,2.57
2023-04-29T11:50:17.166Z,2.23
2023-04-29T11:52:46.204Z,2.53
2023-04-29T11:55:14.500Z,2.60
2023-04-29T11:57:41.761Z,2.93
2023-04-29T12:00:13.869Z,2.70
2023-04-29T12:02:46.544Z,2.80
2023-04-29T12:05:15.251Z,2.60
2023-04-29T12:07:43.360Z,3.70
2023-04-29T12:10:11.825Z,2.50
2023-04-29T12:12:41.447Z,2.80
2023-04-29T12:15:10.433Z,3.63
2023-04-29T12:17:38.114Z,3.20
2023-04-29T12:20:06.314Z,2.00
2023-04-29T12:22:33.453Z,3.80
2023-04-29T12:25:00.475Z,2.83
2023-04-29T12:27:27.435Z,1.77
2023-04-29T12:29:54.264Z,2.20
2023-04-29T12:32:25.582Z,2.20
2023-04-29T12:34:53.879Z,2.00
2023-04-29T12:37:23.311Z,1.70
2023-04-29T12:39:50.826Z,1.30
2023-04-29T12:42:17.962Z,1.73
2023-04-29T12:44:50.787Z,1.60
2023-04-29T12:47:17.819Z,1.77
2023-04-29T12:49:46.128Z,1.30
2023-04-29T12:52:13.475Z,1.10
2023-04-29T12:54:42.629Z,2.00
2023-04-29T12:57:11.020Z,1.83
2023-04-29T12:59:38.464Z,1.33
2023-04-29T13:02:05.423Z,2.27
2023-04-29T13:04:32.535Z,1.63
2023-04-29T13:07:02.611Z,1.80
2023-04-29T13:09:30.594Z,2.07
2023-04-29T13:11:59.234Z,2.13
2023-04-29T13:14:26.831Z,1.90
2023-04-29T13:16:53.945Z,2.30
2023-04-29T13:19:38.244Z,2.40
2023-04-29T13:22:07.823Z,2.10
2023-04-29T13:24:35.919Z,2.07
2023-04-29T13:27:05.979Z,3.00
2023-04-29T13:29:32.754Z,2.60
2023-04-29T13:31:59.797Z,1.97
2023-04-29T13:34:26.565Z,1.90
2023-04-29T13:36:53.540Z,2.20
2023-04-29T13:39:22.919Z,1.90
2023-04-29T13:41:50.223Z,2.30
2023-04-29T13:44:29.398Z,2.40
2023-04-29T13:47:05.643Z,2.13
2023-04-29T13:59:44.773Z,2.73
2023-04-29T14:02:25.042Z,2.30
2023-04-29T14:04:54.248Z,2.13
2023-04-29T14:07:21.459Z,2.03
2023-04-29T14:09:49.538Z,2.50
2023-04-29T14:12:16.597Z,1.97
2023-04-29T14:14:43.789Z,2.07
2023-04-29T14:17:10.617Z,1.83
2023-04-29T14:19:37.974Z,2.10
2023-04-29T14:22:04.718Z,2.00
2023-04-29T14:24:31.492Z,2.10
2023-04-29T14:26:59.018Z,2.13
2023-04-29T14:29:25.861Z,1.70
2023-04-29T14:31:53.084Z,2.10
2023-04-29T14:34:20.072Z,1.80
2023-04-29T14:36:46.940Z,3.20
2023-04-29T14:39:14.827Z,2.77
2023-04-29T14:41:41.624Z,1.50
2023-04-29T14:44:08.307Z,1.30
2023-04-29T14:46:34.998Z,1.63
2023-04-29T14:49:02.183Z,1.83
2023-04-29T14:51:29.398Z,3.40
2023-04-29T14:53:56.481Z,2.50
2023-04-29T14:56:23.528Z,2.13
2023-04-29T14:58:50.362Z,4.77
2023-04-29T15:01:17.367Z,4.17
2023-04-29T15:03:44.989Z,3.70
2023-04-29T15:06:12.684Z,1.67
2023-04-29T15:08:39.548Z,1.20
2023-04-29T15:11:06.336Z,2.17
2023-04-29T15:13:33.041Z,2.13
2023-04-29T15:16:00.203Z,1.90
2023-04-29T15:18:27.631Z,2.10
2023-04-29T15:20:54.488Z,2.10
2023-04-29T15:23:21.657Z,2.80
2023-04-29T15:25:48.504Z,2.40
2023-04-29T15:28:15.252Z,2.60
2023-04-29T15:30:42.030Z,2.10
2023-04-29T15:33:09.035Z,1.50
2023-04-29T15:35:36.562Z,1.50
2023-04-29T15:38:03.432Z,1.13
2023-04-29T15:40:30.146Z,1.53
2023-04-29T15:42:56.842Z,1.33
2023-04-29T15:45:23.796Z,1.03
2023-04-29T15:47:50.659Z,1.50
2023-04-29T15:50:17.476Z,1.77
2023-04-29T15:52:44.157Z,1.73
2023-04-29T15:55:11.903Z,2.40
2023-04-29T15:57:41.203Z,2.53
2023-04-29T16:00:08.940Z,1.70
2023-04-29T16:02:36.029Z,1.73
2023-04-29T16:05:03.453Z,1.60
2023-04-29T16:07:30.684Z,1.30
2023-04-29T16:09:57.430Z,1.33
2023-04-29T16:12:24.183Z,1.63
2023-04-29T16:14:51.142Z,1.53
2023-04-29T16:17:18.365Z,1.23
2023-04-29T16:19:45.120Z,1.20
2023-04-29T16:22:11.985Z,1.20
2023-04-29T16:24:38.766Z,1.37
2023-04-29T16:27:05.536Z,1.90
2023-04-29T16:29:32.313Z,1.87
2023-04-29T16:31:59.050Z,1.40
2023-04-29T16:34:25.875Z,2.17
2023-04-29T16:36:52.697Z,2.03
2023-04-29T16:39:19.418Z,1.60
2023-04-29T16:41:46.198Z,1.87
2023-04-29T16:44:13.498Z,1.70
2023-04-29T16:46:40.542Z,1.80
2023-04-29T16:49:07.565Z,2.07
2023-04-29T16:51:34.322Z,1.70
2023-04-29T16:54:01.204Z,2.23
2023-04-29T16:56:27.889Z,3.10
2023-04-29T16:58:54.962Z,3.00
2023-04-29T17:01:21.728Z,3.67
2023-04-29T17:03:49.014Z,4.07
2023-04-29T17:06:16.476Z,3.53
2023-04-29T17:08:44.525Z,3.10
2023-04-29T17:11:11.396Z,4.10
2023-04-29T17:13:38.515Z,3.87
2023-04-29T17:16:06.310Z,4.20
2023-04-29T17:18:33.262Z,4.50
2023-04-29T17:21:00.238Z,4.50
2023-04-29T17:23:27.476Z,3.77
2023-04-29T17:25:55.422Z,3.60
2023-04-29T17:28:22.641Z,3.57
2023-04-29T17:30:49.919Z,4.20
2023-04-29T17:33:17.517Z,3.47
2023-04-29T17:35:45.213Z,3.37
2023-04-29T17:38:12.454Z,3.80
2023-04-29T17:40:39.780Z,3.50
2023-04-29T17:43:06.455Z,3.90
2023-04-29T17:45:33.317Z,4.40
2023-04-29T17:48:00.696Z,4.00
2023-04-29T17:50:27.769Z,4.07
2023-04-29T17:52:54.611Z,4.40
2023-04-29T17:55:21.433Z,4.97
2023-04-29T17:57:48.222Z,5.00
2023-04-29T18:00:15.032Z,4.90
2023-04-29T18:02:42.259Z,5.93
2023-04-29T18:05:09.271Z,4.67
2023-04-29T18:07:36.274Z,4.17
2023-04-29T18:10:03.647Z,6.10
2023-04-29T18:12:30.481Z,5.00
2023-04-29T18:14:57.473Z,5.10
2023-04-29T18:17:24.745Z,5.13
2023-04-29T18:19:51.481Z,5.17
2023-04-29T18:22:18.280Z,4.77
2023-04-29T18:24:45.975Z,5.57
2023-04-29T18:27:13.188Z,4.70
2023-04-29T18:29:39.913Z,4.87
2023-04-29T18:32:08.178Z,5.57
2023-04-29T18:34:35.160Z,4.83
2023-04-29T18:37:02.016Z,4.80
2023-04-29T18:39:29.355Z,5.63
2023-04-29T18:41:56.153Z,5.50
2023-04-29T18:44:22.934Z,5.63
2023-04-29T18:46:49.833Z,4.90
2023-04-29T18:49:17.855Z,5.63
2023-04-29T18:51:48.451Z,5.70
2023-04-29T18:54:17.360Z,6.13
2023-04-29T18:56:48.776Z,5.60
2023-04-29T18:59:19.062Z,5.80
2023-04-29T19:01:47.188Z,6.20
2023-04-29T19:04:14.189Z,5.83
2023-04-29T19:06:41.922Z,6.73
2023-04-29T19:09:08.872Z,6.00
2023-04-29T19:11:36.167Z,6.57
2023-04-29T19:14:04.242Z,6.73
2023-04-29T19:16:30.980Z,5.83
2023-04-29T19:18:58.084Z,6.70
2023-04-29T19:21:25.178Z,5.87
2023-04-29T19:23:52.230Z,5.83
2023-04-29T19:26:19.069Z,6.13
2023-04-29T19:28:45.924Z,6.00
2023-04-29T19:31:12.753Z,5.67
2023-04-29T19:33:39.461Z,5.23
2023-04-29T19:36:06.352Z,5.90
2023-04-29T19:38:33.568Z,4.50
2023-04-29T19:41:00.363Z,6.67
2023-04-29T19:43:27.069Z,6.00
2023-04-29T19:45:53.791Z,5.80
2023-04-29T19:48:21.100Z,5.73
2023-04-29T19:50:47.945Z,6.03
2023-04-29T19:53:14.656Z,6.40
2023-04-29T19:55:41.609Z,11.27
2023-04-29T19:58:08.553Z,10.60
2023-04-29T20:00:36.321Z,8.70
2023-04-29T20:03:03.424Z,6.93
2023-04-29T20:05:30.248Z,6.90
2023-04-29T20:07:57.005Z,6.83
2023-04-29T20:10:23.812Z,7.07
2023-04-29T20:12:50.573Z,11.33
2023-04-29T20:15:17.494Z,6.33
2023-04-29T20:17:44.478Z,5.80
2023-04-29T20:20:11.492Z,5.67
2023-04-29T20:22:39.093Z,5.27
2023-04-29T20:25:06.578Z,6.20
2023-04-29T20:27:33.311Z,5.80
2023-04-29T20:30:00.941Z,5.53
2023-04-29T20:32:27.677Z,6.17
2023-04-29T20:34:55.065Z,6.80
2023-04-29T20:37:21.861Z,5.43
2023-04-29T20:39:48.866Z,5.73
2023-04-29T20:42:15.608Z,5.87
2023-04-29T20:44:42.425Z,5.60
2023-04-29T20:47:10.276Z,5.63
2023-04-29T20:49:37.697Z,6.10
2023-04-29T20:52:06.433Z,6.77
2023-04-29T20:54:33.968Z,6.03
2023-04-29T20:57:01.842Z,5.53
2023-04-29T20:59:28.793Z,6.87
2023-04-29T21:01:55.670Z,7.07
2023-04-29T21:04:23.200Z,5.63
2023-04-29T21:06:53.176Z,6.50
2023-04-29T21:09:21.355Z,6.80
2023-04-29T21:11:48.427Z,6.97
2023-04-29T21:14:15.217Z,6.33
2023-04-29T21:16:42.509Z,5.77
2023-04-29T21:19:09.256Z,6.70
2023-04-29T21:21:36.054Z,6.50
2023-04-29T21:24:03.093Z,6.07
2023-04-29T21:26:29.889Z,5.80
2023-04-29T21:28:56.924Z,6.00
2023-04-29T21:31:23.761Z,6.17
2023-04-29T21:33:51.341Z,5.43
2023-04-29T21:36:18.221Z,5.87
2023-04-29T21:38:45.039Z,5.97
2023-04-29T21:41:20.771Z,5.80
2023-04-29T21:43:48.720Z,8.50
2023-04-29T21:46:16.514Z,5.27
2023-04-29T21:48:43.666Z,8.63
2023-04-29T21:51:10.600Z,6.43
2023-04-29T21:53:38.183Z,6.03
2023-04-29T21:56:07.941Z,5.10
2023-04-29T21:58:34.632Z,5.40
2023-04-29T22:01:03.498Z,5.47
2023-04-29T22:03:30.490Z,5.60
2023-04-29T22:05:57.660Z,5.40
2023-04-29T22:08:24.485Z,5.90
2023-04-29T22:10:51.235Z,5.90
2023-04-29T22:13:18.165Z,5.90
2023-04-29T22:15:45.029Z,6.00
2023-04-29T22:18:11.930Z,6.80
2023-04-29T22:20:38.960Z,6.30
2023-04-29T22:23:05.936Z,7.00
2023-04-29T22:25:32.841Z,6.40
2023-04-29T22:27:59.682Z,7.10
2023-04-29T22:30:26.748Z,5.93
2023-04-29T22:32:54.936Z,6.40
2023-04-29T22:35:21.729Z,5.90
2023-04-29T22:37:48.897Z,6.00
2023-04-29T22:40:15.628Z,6.50
2023-04-29T22:42:43.027Z,7.17
2023-04-29T22:45:11.618Z,5.93
2023-04-29T22:47:38.588Z,6.80
2023-04-29T22:50:06.072Z,6.17
2023-04-29T22:52:32.930Z,5.90
2023-04-29T22:54:59.952Z,6.10
2023-04-29T22:57:26.689Z,6.30
2023-04-29T22:59:57.490Z,6.20
2023-04-29T23:02:27.621Z,7.10
2023-04-29T23:04:58.606Z,6.17
2023-04-29T23:07:25.807Z,7.03
2023-04-29T23:09:53.055Z,6.03
2023-04-29T23:12:20.409Z,5.20
2023-04-29T23:14:47.104Z,6.00
2023-04-29T23:17:14.442Z,6.33
2023-04-29T23:19:41.139Z,6.23
2023-04-29T23:22:08.040Z,6.80
2023-04-29T23:24:35.569Z,6.70
2023-04-29T23:27:05.637Z,6.47
2023-04-29T23:29:35.550Z,6.40
2023-04-29T23:32:02.899Z,7.17
2023-04-29T23:34:29.675Z,6.90
2023-04-29T23:36:56.396Z,6.70
2023-04-29T23:39:23.110Z,5.87
2023-04-29T23:41:49.874Z,5.73
2023-04-29T23:44:16.680Z,6.67
2023-04-29T23:46:43.448Z,6.60
2023-04-29T23:49:10.483Z,5.60
2023-04-29T23:51:37.572Z,6.97
2023-04-29T23:54:04.282Z,6.93
2023-04-29T23:56:32.955Z,6.33
2023-04-29T23:58:59.938Z,5.97
